LFML/MRS METAR and TAF weather

Enter ICAO airport designator
Station Type Date Time Source
LFML METAR 2018/12/17 16:30 UTC NOAA

LFML 171630Z AUTO 30021KT CAVOK 10/04 Q1025 BECMG 32005KT


Station Type Date Time Source
LFML Decoded METAR 2018/12/17 16:30 UTC NOAA

Marseille / Marignane, France (LFML) 43-27N 005-14E 36M
Dec 17, 2018 - 11:30 AM EST / 2018.12.17 1630 UTC
Wind: from the WNW (300 degrees) at 24 MPH (21 KT):0
Visibility: greater than 7 mile(s):0
Temperature: 50 F (10 C)
Dew Point: 39 F (4 C)
Relative Humidity: 66%
Pressure (altimeter): 30.27 in. Hg (1025 hPa)
ob: LFML 171630Z AUTO 30021KT CAVOK 10/04 Q1025 BECMG 32005KT
cycle: 16

Station Type Date Time Source
LFML TAF 2018/12/17 15:24 UTC NOAA

TAF TAF LFML 171400Z 1715/1821 32025KT CAVOK TX14/1813Z TN02/1804Z
BECMG 1715/1717 32015KT
BECMG 1718/1720 32005KT
BECMG 1722/1724 VRB02KT
BECMG 1808/1810 14008KT


Example: see airport list